sensor_id;sensor_type;location;lat;lon;timestamp;P1;P2;P0
42410;PMS5003;28056;51.112;0.984;2022-10-15T00:00:44;11;11;
42410;PMS5003;28056;51.112;0.984;2022-10-15T00:04:46;16;13;
42410;PMS5003;28056;51.112;0.984;2022-10-15T00:07:14;15;13;
42410;PMS5003;28056;51.112;0.984;2022-10-15T00:09:42;17;15;
42410;PMS5003;28056;51.112;0.984;2022-10-15T00:12:09;15;12;
42410;PMS5003;28056;51.112;0.984;2022-10-15T00:14:37;11;11;
42410;PMS5003;28056;51.112;0.984;2022-10-15T00:17:05;15;12;
42410;PMS5003;28056;51.112;0.984;2022-10-15T00:19:32;13;13;
42410;PMS5003;28056;51.112;0.984;2022-10-15T00:22:00;12;12;
42410;PMS5003;28056;51.112;0.984;2022-10-15T00:24:28;12;11;
42410;PMS5003;28056;51.112;0.984;2022-10-15T00:26:55;10;10;
42410;PMS5003;28056;51.112;0.984;2022-10-15T00:29:23;16;15;
42410;PMS5003;28056;51.112;0.984;2022-10-15T00:31:51;12;12;
42410;PMS5003;28056;51.112;0.984;2022-10-15T00:34:18;16;15;
42410;PMS5003;28056;51.112;0.984;2022-10-15T00:36:48;16;13;
42410;PMS5003;28056;51.112;0.984;2022-10-15T00:39:16;12;10;
42410;PMS5003;28056;51.112;0.984;2022-10-15T00:41:44;15;12;
42410;PMS5003;28056;51.112;0.984;2022-10-15T00:44:49;9;8;
42410;PMS5003;28056;51.112;0.984;2022-10-15T00:47:22;11;11;
42410;PMS5003;28056;51.112;0.984;2022-10-15T00:49:55;11;10;
42410;PMS5003;28056;51.112;0.984;2022-10-15T00:52:29;11;11;
42410;PMS5003;28056;51.112;0.984;2022-10-15T00:55:05;14;11;
42410;PMS5003;28056;51.112;0.984;2022-10-15T00:57:36;10;10;
42410;PMS5003;28056;51.112;0.984;2022-10-15T01:00:06;8;8;
42410;PMS5003;28056;51.112;0.984;2022-10-15T01:02:35;14;12;
42410;PMS5003;28056;51.112;0.984;2022-10-15T01:05:03;14;10;
42410;PMS5003;28056;51.112;0.984;2022-10-15T01:07:31;11;9;
42410;PMS5003;28056;51.112;0.984;2022-10-15T01:09:59;15;14;
42410;PMS5003;28056;51.112;0.984;2022-10-15T01:12:32;12;11;
42410;PMS5003;28056;51.112;0.984;2022-10-15T01:15:15;14;11;
42410;PMS5003;28056;51.112;0.984;2022-10-15T01:17:48;7;7;
42410;PMS5003;28056;51.112;0.984;2022-10-15T01:20:30;9;9;
42410;PMS5003;28056;51.112;0.984;2022-10-15T01:23:22;9;9;
42410;PMS5003;28056;51.112;0.984;2022-10-15T01:26:12;8;8;
42410;PMS5003;28056;51.112;0.984;2022-10-15T01:29:02;9;9;
42410;PMS5003;28056;51.112;0.984;2022-10-15T01:31:40;11;11;
42410;PMS5003;28056;51.112;0.984;2022-10-15T01:34:12;11;10;
42410;PMS5003;28056;51.112;0.984;2022-10-15T01:36:46;15;11;
42410;PMS5003;28056;51.112;0.984;2022-10-15T01:39:24;9;9;
42410;PMS5003;28056;51.112;0.984;2022-10-15T01:41:59;9;9;
42410;PMS5003;28056;51.112;0.984;2022-10-15T01:44:30;13;10;
42410;PMS5003;28056;51.112;0.984;2022-10-15T01:47:03;18;15;
42410;PMS5003;28056;51.112;0.984;2022-10-15T01:49:33;14;14;
42410;PMS5003;28056;51.112;0.984;2022-10-15T01:52:07;15;14;
42410;PMS5003;28056;51.112;0.984;2022-10-15T01:54:39;21;20;
42410;PMS5003;28056;51.112;0.984;2022-10-15T01:57:07;23;22;
42410;PMS5003;28056;51.112;0.984;2022-10-15T01:59:38;24;22;
42410;PMS5003;28056;51.112;0.984;2022-10-15T02:02:08;25;25;
42410;PMS5003;28056;51.112;0.984;2022-10-15T02:04:35;23;22;
42410;PMS5003;28056;51.112;0.984;2022-10-15T02:07:03;20;19;
42410;PMS5003;28056;51.112;0.984;2022-10-15T02:09:38;16;16;
42410;PMS5003;28056;51.112;0.984;2022-10-15T02:12:13;16;16;
42410;PMS5003;28056;51.112;0.984;2022-10-15T02:14:52;20;15;
42410;PMS5003;28056;51.112;0.984;2022-10-15T02:17:24;14;14;
42410;PMS5003;28056;51.112;0.984;2022-10-15T02:20:03;12;11;
42410;PMS5003;28056;51.112;0.984;2022-10-15T02:22:36;14;14;
42410;PMS5003;28056;51.112;0.984;2022-10-15T02:25:11;11;10;
42410;PMS5003;28056;51.112;0.984;2022-10-15T02:27:43;14;14;
42410;PMS5003;28056;51.112;0.984;2022-10-15T02:30:13;14;11;
42410;PMS5003;28056;51.112;0.984;2022-10-15T02:32:42;12;11;
42410;PMS5003;28056;51.112;0.984;2022-10-15T02:35:13;16;16;
42410;PMS5003;28056;51.112;0.984;2022-10-15T02:37:42;15;12;
42410;PMS5003;28056;51.112;0.984;2022-10-15T02:40:14;15;12;
42410;PMS5003;28056;51.112;0.984;2022-10-15T02:42:41;21;16;
42410;PMS5003;28056;51.112;0.984;2022-10-15T02:45:09;12;10;
42410;PMS5003;28056;51.112;0.984;2022-10-15T02:47:36;12;12;
42410;PMS5003;28056;51.112;0.984;2022-10-15T02:50:04;12;11;
42410;PMS5003;28056;51.112;0.984;2022-10-15T02:52:32;13;11;
42410;PMS5003;28056;51.112;0.984;2022-10-15T02:54:59;11;11;
42410;PMS5003;28056;51.112;0.984;2022-10-15T02:57:27;11;11;
42410;PMS5003;28056;51.112;0.984;2022-10-15T02:59:55;14;11;
42410;PMS5003;28056;51.112;0.984;2022-10-15T03:02:22;15;14;
42410;PMS5003;28056;51.112;0.984;2022-10-15T03:04:49;10;10;
42410;PMS5003;28056;51.112;0.984;2022-10-15T03:07:16;17;15;
42410;PMS5003;28056;51.112;0.984;2022-10-15T03:09:44;19;15;
42410;PMS5003;28056;51.112;0.984;2022-10-15T03:12:11;15;14;
42410;PMS5003;28056;51.112;0.984;2022-10-15T03:14:39;14;11;
42410;PMS5003;28056;51.112;0.984;2022-10-15T03:17:06;16;16;
42410;PMS5003;28056;51.112;0.984;2022-10-15T03:19:34;19;17;
42410;PMS5003;28056;51.112;0.984;2022-10-15T03:22:01;21;19;
42410;PMS5003;28056;51.112;0.984;2022-10-15T03:24:29;19;17;
42410;PMS5003;28056;51.112;0.984;2022-10-15T03:26:56;16;16;
42410;PMS5003;28056;51.112;0.984;2022-10-15T03:29:23;21;19;
42410;PMS5003;28056;51.112;0.984;2022-10-15T03:31:51;17;17;
42410;PMS5003;28056;51.112;0.984;2022-10-15T03:34:18;12;12;
42410;PMS5003;28056;51.112;0.984;2022-10-15T03:36:45;16;14;
42410;PMS5003;28056;51.112;0.984;2022-10-15T03:39:12;12;12;
42410;PMS5003;28056;51.112;0.984;2022-10-15T03:41:40;11;11;
42410;PMS5003;28056;51.112;0.984;2022-10-15T03:44:07;15;15;
42410;PMS5003;28056;51.112;0.984;2022-10-15T03:46:36;10;10;
42410;PMS5003;28056;51.112;0.984;2022-10-15T03:49:03;13;12;
42410;PMS5003;28056;51.112;0.984;2022-10-15T03:51:30;10;10;
42410;PMS5003;28056;51.112;0.984;2022-10-15T03:53:58;10;10;
42410;PMS5003;28056;51.112;0.984;2022-10-15T03:56:26;11;11;
42410;PMS5003;28056;51.112;0.984;2022-10-15T03:58:53;10;9;
42410;PMS5003;28056;51.112;0.984;2022-10-15T04:01:21;15;12;
42410;PMS5003;28056;51.112;0.984;2022-10-15T04:03:50;16;15;
42410;PMS5003;28056;51.112;0.984;2022-10-15T04:06:18;13;13;
42410;PMS5003;28056;51.112;0.984;2022-10-15T04:08:46;15;15;
42410;PMS5003;28056;51.112;0.984;2022-10-15T04:11:14;15;13;
42410;PMS5003;28056;51.112;0.984;2022-10-15T04:13:43;17;13;
42410;PMS5003;28056;51.112;0.984;2022-10-15T04:16:14;11;11;
42410;PMS5003;28056;51.112;0.984;2022-10-15T04:18:41;17;12;
42410;PMS5003;28056;51.112;0.984;2022-10-15T04:21:09;11;11;
42410;PMS5003;28056;51.112;0.984;2022-10-15T04:23:37;13;12;
42410;PMS5003;28056;51.112;0.984;2022-10-15T04:26:05;9;9;
42410;PMS5003;28056;51.112;0.984;2022-10-15T04:28:32;10;10;
42410;PMS5003;28056;51.112;0.984;2022-10-15T04:31:00;12;11;
42410;PMS5003;28056;51.112;0.984;2022-10-15T04:33:28;9;9;
42410;PMS5003;28056;51.112;0.984;2022-10-15T04:35:58;13;10;
42410;PMS5003;28056;51.112;0.984;2022-10-15T04:38:27;6;6;
42410;PMS5003;28056;51.112;0.984;2022-10-15T04:40:58;8;8;
42410;PMS5003;28056;51.112;0.984;2022-10-15T04:43:28;6;6;
42410;PMS5003;28056;51.112;0.984;2022-10-15T04:45:56;5;5;
42410;PMS5003;28056;51.112;0.984;2022-10-15T04:48:23;4;4;
42410;PMS5003;28056;51.112;0.984;2022-10-15T04:50:51;5;5;
42410;PMS5003;28056;51.112;0.984;2022-10-15T04:53:19;7;5;
42410;PMS5003;28056;51.112;0.984;2022-10-15T04:55:46;6;6;
42410;PMS5003;28056;51.112;0.984;2022-10-15T04:58:14;3;3;
42410;PMS5003;28056;51.112;0.984;2022-10-15T05:00:42;3;2;
42410;PMS5003;28056;51.112;0.984;2022-10-15T05:03:09;4;4;
42410;PMS5003;28056;51.112;0.984;2022-10-15T05:05:37;3;3;
42410;PMS5003;28056;51.112;0.984;2022-10-15T05:08:05;4;4;
42410;PMS5003;28056;51.112;0.984;2022-10-15T05:10:32;3;3;
42410;PMS5003;28056;51.112;0.984;2022-10-15T05:12:59;2;2;
42410;PMS5003;28056;51.112;0.984;2022-10-15T05:15:27;2;2;
42410;PMS5003;28056;51.112;0.984;2022-10-15T05:17:55;4;3;
42410;PMS5003;28056;51.112;0.984;2022-10-15T05:20:22;5;5;
42410;PMS5003;28056;51.112;0.984;2022-10-15T05:22:50;4;4;
42410;PMS5003;28056;51.112;0.984;2022-10-15T05:25:18;3;3;
42410;PMS5003;28056;51.112;0.984;2022-10-15T05:27:45;3;3;
42410;PMS5003;28056;51.112;0.984;2022-10-15T05:30:13;4;2;
42410;PMS5003;28056;51.112;0.984;2022-10-15T05:32:41;4;2;
42410;PMS5003;28056;51.112;0.984;2022-10-15T05:35:08;2;2;
42410;PMS5003;28056;51.112;0.984;2022-10-15T05:37:36;3;2;
42410;PMS5003;28056;51.112;0.984;2022-10-15T05:40:04;5;5;
42410;PMS5003;28056;51.112;0.984;2022-10-15T05:42:32;3;3;
42410;PMS5003;28056;51.112;0.984;2022-10-15T05:45:00;3;3;
42410;PMS5003;28056;51.112;0.984;2022-10-15T05:47:29;4;4;
42410;PMS5003;28056;51.112;0.984;2022-10-15T05:49:56;4;4;
42410;PMS5003;28056;51.112;0.984;2022-10-15T05:52:23;4;4;
42410;PMS5003;28056;51.112;0.984;2022-10-15T05:54:51;6;5;
42410;PMS5003;28056;51.112;0.984;2022-10-15T05:57:20;6;6;
42410;PMS5003;28056;51.112;0.984;2022-10-15T05:59:47;5;5;
42410;PMS5003;28056;51.112;0.984;2022-10-15T06:02:15;5;5;
42410;PMS5003;28056;51.112;0.984;2022-10-15T06:04:43;4;4;
42410;PMS5003;28056;51.112;0.984;2022-10-15T06:07:10;4;4;
42410;PMS5003;28056;51.112;0.984;2022-10-15T06:09:38;5;5;
42410;PMS5003;28056;51.112;0.984;2022-10-15T06:12:06;3;2;
42410;PMS5003;28056;51.112;0.984;2022-10-15T06:14:33;2;2;
42410;PMS5003;28056;51.112;0.984;2022-10-15T06:17:01;3;3;
42410;PMS5003;28056;51.112;0.984;2022-10-15T06:19:29;4;4;
42410;PMS5003;28056;51.112;0.984;2022-10-15T06:21:56;4;3;
42410;PMS5003;28056;51.112;0.984;2022-10-15T06:24:24;4;4;
42410;PMS5003;28056;51.112;0.984;2022-10-15T06:26:52;5;5;
42410;PMS5003;28056;51.112;0.984;2022-10-15T06:29:19;4;4;
42410;PMS5003;28056;51.112;0.984;2022-10-15T06:31:47;5;5;
42410;PMS5003;28056;51.112;0.984;2022-10-15T06:34:15;8;4;
42410;PMS5003;28056;51.112;0.984;2022-10-15T06:36:42;5;5;
42410;PMS5003;28056;51.112;0.984;2022-10-15T06:39:10;7;7;
42410;PMS5003;28056;51.112;0.984;2022-10-15T06:41:38;6;6;
42410;PMS5003;28056;51.112;0.984;2022-10-15T06:44:05;9;7;
42410;PMS5003;28056;51.112;0.984;2022-10-15T06:46:33;9;6;
42410;PMS5003;28056;51.112;0.984;2022-10-15T06:49:02;9;9;
42410;PMS5003;28056;51.112;0.984;2022-10-15T06:51:29;7;6;
42410;PMS5003;28056;51.112;0.984;2022-10-15T06:53:57;9;9;
42410;PMS5003;28056;51.112;0.984;2022-10-15T06:56:24;9;9;
42410;PMS5003;28056;51.112;0.984;2022-10-15T06:58:52;10;9;
42410;PMS5003;28056;51.112;0.984;2022-10-15T07:01:20;8;6;
42410;PMS5003;28056;51.112;0.984;2022-10-15T07:03:52;9;7;
42410;PMS5003;28056;51.112;0.984;2022-10-15T07:06:19;5;5;
42410;PMS5003;28056;51.112;0.984;2022-10-15T07:08:47;2;2;
42410;PMS5003;28056;51.112;0.984;2022-10-15T07:11:15;4;3;
42410;PMS5003;28056;51.112;0.984;2022-10-15T07:13:42;2;2;
42410;PMS5003;28056;51.112;0.984;2022-10-15T07:16:10;2;2;
42410;PMS5003;28056;51.112;0.984;2022-10-15T07:18:38;2;2;
42410;PMS5003;28056;51.112;0.984;2022-10-15T07:21:06;2;2;
42410;PMS5003;28056;51.112;0.984;2022-10-15T07:23:35;1;1;
42410;PMS5003;28056;51.112;0.984;2022-10-15T07:26:03;1;1;
42410;PMS5003;28056;51.112;0.984;2022-10-15T07:28:30;1;1;
42410;PMS5003;28056;51.112;0.984;2022-10-15T07:31:00;0;0;
42410;PMS5003;28056;51.112;0.984;2022-10-15T07:33:28;0;0;
42410;PMS5003;28056;51.112;0.984;2022-10-15T07:35:56;0;0;
42410;PMS5003;28056;51.112;0.984;2022-10-15T07:38:23;1;1;
42410;PMS5003;28056;51.112;0.984;2022-10-15T07:40:51;0;0;
42410;PMS5003;28056;51.112;0.984;2022-10-15T07:43:22;0;0;
42410;PMS5003;28056;51.112;0.984;2022-10-15T07:45:50;0;0;
42410;PMS5003;28056;51.112;0.984;2022-10-15T07:48:18;0;0;
42410;PMS5003;28056;51.112;0.984;2022-10-15T07:50:45;1;1;
42410;PMS5003;28056;51.112;0.984;2022-10-15T07:53:13;1;1;
42410;PMS5003;28056;51.112;0.984;2022-10-15T07:55:41;0;0;
42410;PMS5003;28056;51.112;0.984;2022-10-15T07:58:08;1;1;
42410;PMS5003;28056;51.112;0.984;2022-10-15T08:00:36;3;2;
42410;PMS5003;28056;51.112;0.984;2022-10-15T08:03:04;1;1;
42410;PMS5003;28056;51.112;0.984;2022-10-15T08:05:32;3;1;
42410;PMS5003;28056;51.112;0.984;2022-10-15T08:07:59;3;2;
42410;PMS5003;28056;51.112;0.984;2022-10-15T08:10:28;2;2;
42410;PMS5003;28056;51.112;0.984;2022-10-15T08:12:56;2;2;
42410;PMS5003;28056;51.112;0.984;2022-10-15T08:15:23;4;4;
42410;PMS5003;28056;51.112;0.984;2022-10-15T08:17:51;3;3;
42410;PMS5003;28056;51.112;0.984;2022-10-15T08:20:18;5;2;
42410;PMS5003;28056;51.112;0.984;2022-10-15T08:22:45;4;3;
42410;PMS5003;28056;51.112;0.984;2022-10-15T08:25:13;3;3;
42410;PMS5003;28056;51.112;0.984;2022-10-15T08:27:41;5;5;
42410;PMS5003;28056;51.112;0.984;2022-10-15T08:30:09;5;5;
42410;PMS5003;28056;51.112;0.984;2022-10-15T08:32:36;8;5;
42410;PMS5003;28056;51.112;0.984;2022-10-15T08:35:04;6;6;
42410;PMS5003;28056;51.112;0.984;2022-10-15T08:37:32;9;9;
42410;PMS5003;28056;51.112;0.984;2022-10-15T08:39:59;10;9;
42410;PMS5003;28056;51.112;0.984;2022-10-15T08:42:28;9;8;
42410;PMS5003;28056;51.112;0.984;2022-10-15T08:45:03;10;10;
42410;PMS5003;28056;51.112;0.984;2022-10-15T08:47:37;9;7;
42410;PMS5003;28056;51.112;0.984;2022-10-15T08:50:11;7;7;
42410;PMS5003;28056;51.112;0.984;2022-10-15T08:52:47;6;6;
42410;PMS5003;28056;51.112;0.984;2022-10-15T08:55:17;6;5;
42410;PMS5003;28056;51.112;0.984;2022-10-15T08:57:48;9;4;
42410;PMS5003;28056;51.112;0.984;2022-10-15T09:00:20;4;4;
42410;PMS5003;28056;51.112;0.984;2022-10-15T09:02:52;3;3;
42410;PMS5003;28056;51.112;0.984;2022-10-15T09:05:27;3;3;
42410;PMS5003;28056;51.112;0.984;2022-10-15T09:08:06;2;2;
42410;PMS5003;28056;51.112;0.984;2022-10-15T09:10:44;6;3;
42410;PMS5003;28056;51.112;0.984;2022-10-15T09:13:17;2;2;
42410;PMS5003;28056;51.112;0.984;2022-10-15T09:15:52;3;2;
42410;PMS5003;28056;51.112;0.984;2022-10-15T09:18:23;2;2;
42410;PMS5003;28056;51.112;0.984;2022-10-15T09:20:53;3;3;
42410;PMS5003;28056;51.112;0.984;2022-10-15T09:23:24;5;5;
42410;PMS5003;28056;51.112;0.984;2022-10-15T09:25:56;2;2;
42410;PMS5003;28056;51.112;0.984;2022-10-15T09:28:33;2;2;
42410;PMS5003;28056;51.112;0.984;2022-10-15T09:31:07;3;3;
42410;PMS5003;28056;51.112;0.984;2022-10-15T09:33:39;2;2;
42410;PMS5003;28056;51.112;0.984;2022-10-15T09:36:14;1;1;
42410;PMS5003;28056;51.112;0.984;2022-10-15T09:38:57;3;1;
42410;PMS5003;28056;51.112;0.984;2022-10-15T09:41:34;1;1;
42410;PMS5003;28056;51.112;0.984;2022-10-15T09:44:09;1;1;
42410;PMS5003;28056;51.112;0.984;2022-10-15T09:46:44;1;1;
42410;PMS5003;28056;51.112;0.984;2022-10-15T09:49:17;1;1;
42410;PMS5003;28056;51.112;0.984;2022-10-15T09:51:52;1;1;
42410;PMS5003;28056;51.112;0.984;2022-10-15T09:54:30;2;1;
42410;PMS5003;28056;51.112;0.984;2022-10-15T09:57:07;3;3;
42410;PMS5003;28056;51.112;0.984;2022-10-15T09:59:37;1;1;
42410;PMS5003;28056;51.112;0.984;2022-10-15T10:02:17;1;1;
42410;PMS5003;28056;51.112;0.984;2022-10-15T10:04:46;1;1;
42410;PMS5003;28056;51.112;0.984;2022-10-15T10:07:26;1;1;
42410;PMS5003;28056;51.112;0.984;2022-10-15T10:09:58;2;1;
42410;PMS5003;28056;51.112;0.984;2022-10-15T10:12:30;1;1;
42410;PMS5003;28056;51.112;0.984;2022-10-15T10:15:01;0;0;
42410;PMS5003;28056;51.112;0.984;2022-10-15T10:17:31;0;0;
42410;PMS5003;28056;51.112;0.984;2022-10-15T10:20:16;1;1;
42410;PMS5003;28056;51.112;0.984;2022-10-15T10:22:45;2;1;
42410;PMS5003;28056;51.112;0.984;2022-10-15T10:25:46;0;0;
42410;PMS5003;28056;51.112;0.984;2022-10-15T10:28:16;1;1;
42410;PMS5003;28056;51.112;0.984;2022-10-15T10:30:50;0;0;
42410;PMS5003;28056;51.112;0.984;2022-10-15T10:33:26;0;0;
42410;PMS5003;28056;51.112;0.984;2022-10-15T10:35:55;0;0;
42410;PMS5003;28056;51.112;0.984;2022-10-15T10:38:24;0;0;
42410;PMS5003;28056;51.112;0.984;2022-10-15T10:40:55;0;0;
42410;PMS5003;28056;51.112;0.984;2022-10-15T10:43:26;0;0;
42410;PMS5003;28056;51.112;0.984;2022-10-15T10:45:56;2;1;
42410;PMS5003;28056;51.112;0.984;2022-10-15T10:48:26;0;0;
42410;PMS5003;28056;51.112;0.984;2022-10-15T10:51:12;0;0;
42410;PMS5003;28056;51.112;0.984;2022-10-15T10:53:46;3;2;
42410;PMS5003;28056;51.112;0.984;2022-10-15T10:56:17;0;0;
42410;PMS5003;28056;51.112;0.984;2022-10-15T10:58:51;2;2;
42410;PMS5003;28056;51.112;0.984;2022-10-15T11:01:23;2;0;
42410;PMS5003;28056;51.112;0.984;2022-10-15T11:03:50;3;0;
42410;PMS5003;28056;51.112;0.984;2022-10-15T11:06:29;1;1;
42410;PMS5003;28056;51.112;0.984;2022-10-15T11:09:09;3;0;
42410;PMS5003;28056;51.112;0.984;2022-10-15T11:11:49;0;0;
42410;PMS5003;28056;51.112;0.984;2022-10-15T11:14:28;1;1;
42410;PMS5003;28056;51.112;0.984;2022-10-15T11:17:07;1;1;
42410;PMS5003;28056;51.112;0.984;2022-10-15T11:19:44;0;0;
42410;PMS5003;28056;51.112;0.984;2022-10-15T11:22:23;2;0;
42410;PMS5003;28056;51.112;0.984;2022-10-15T11:24:58;1;1;
42410;PMS5003;28056;51.112;0.984;2022-10-15T11:27:40;0;0;
42410;PMS5003;28056;51.112;0.984;2022-10-15T11:30:18;0;0;
42410;PMS5003;28056;51.112;0.984;2022-10-15T11:32:59;1;0;
42410;PMS5003;28056;51.112;0.984;2022-10-15T11:35:42;2;0;
42410;PMS5003;28056;51.112;0.984;2022-10-15T11:38:18;1;1;
42410;PMS5003;28056;51.112;0.984;2022-10-15T11:40:53;0;0;
42410;PMS5003;28056;51.112;0.984;2022-10-15T11:43:36;0;0;
42410;PMS5003;28056;51.112;0.984;2022-10-15T11:46:13;0;0;
42410;PMS5003;28056;51.112;0.984;2022-10-15T11:48:52;0;0;
42410;PMS5003;28056;51.112;0.984;2022-10-15T11:51:33;0;0;
42410;PMS5003;28056;51.112;0.984;2022-10-15T11:54:11;1;0;
42410;PMS5003;28056;51.112;0.984;2022-10-15T11:56:47;0;0;
42410;PMS5003;28056;51.112;0.984;2022-10-15T11:59:23;2;1;
42410;PMS5003;28056;51.112;0.984;2022-10-15T12:02:00;1;0;
42410;PMS5003;28056;51.112;0.984;2022-10-15T12:04:37;0;0;
42410;PMS5003;28056;51.112;0.984;2022-10-15T12:07:10;0;0;
42410;PMS5003;28056;51.112;0.984;2022-10-15T12:09:43;0;0;
42410;PMS5003;28056;51.112;0.984;2022-10-15T12:12:18;1;0;
42410;PMS5003;28056;51.112;0.984;2022-10-15T12:14:54;3;2;
42410;PMS5003;28056;51.112;0.984;2022-10-15T12:17:35;1;1;
42410;PMS5003;28056;51.112;0.984;2022-10-15T12:20:13;2;0;
42410;PMS5003;28056;51.112;0.984;2022-10-15T12:22:52;0;0;
42410;PMS5003;28056;51.112;0.984;2022-10-15T12:25:53;5;1;
42410;PMS5003;28056;51.112;0.984;2022-10-15T12:28:21;1;1;
42410;PMS5003;28056;51.112;0.984;2022-10-15T12:30:52;2;1;
42410;PMS5003;28056;51.112;0.984;2022-10-15T12:33:23;1;1;
42410;PMS5003;28056;51.112;0.984;2022-10-15T12:35:59;4;1;
42410;PMS5003;28056;51.112;0.984;2022-10-15T12:38:30;1;0;
42410;PMS5003;28056;51.112;0.984;2022-10-15T12:41:00;0;0;
42410;PMS5003;28056;51.112;0.984;2022-10-15T12:43:31;2;0;
42410;PMS5003;28056;51.112;0.984;2022-10-15T12:46:03;2;1;
42410;PMS5003;28056;51.112;0.984;2022-10-15T12:48:34;0;0;
42410;PMS5003;28056;51.112;0.984;2022-10-15T12:51:35;0;0;
42410;PMS5003;28056;51.112;0.984;2022-10-15T12:54:36;0;0;
42410;PMS5003;28056;51.112;0.984;2022-10-15T12:58:30;3;2;
42410;PMS5003;28056;51.112;0.984;2022-10-15T13:01:03;2;0;
42410;PMS5003;28056;51.112;0.984;2022-10-15T13:03:33;0;0;
42410;PMS5003;28056;51.112;0.984;2022-10-15T13:06:22;1;1;
42410;PMS5003;28056;51.112;0.984;2022-10-15T13:08:59;3;0;
42410;PMS5003;28056;51.112;0.984;2022-10-15T13:11:43;0;0;
42410;PMS5003;28056;51.112;0.984;2022-10-15T13:14:17;3;1;
42410;PMS5003;28056;51.112;0.984;2022-10-15T13:16:51;2;1;
42410;PMS5003;28056;51.112;0.984;2022-10-15T13:19:20;2;2;
42410;PMS5003;28056;51.112;0.984;2022-10-15T13:21:52;0;0;
42410;PMS5003;28056;51.112;0.984;2022-10-15T13:24:21;1;1;
42410;PMS5003;28056;51.112;0.984;2022-10-15T13:26:51;1;1;
42410;PMS5003;28056;51.112;0.984;2022-10-15T13:29:21;1;1;
42410;PMS5003;28056;51.112;0.984;2022-10-15T13:31:51;2;0;
42410;PMS5003;28056;51.112;0.984;2022-10-15T13:34:25;1;0;
42410;PMS5003;28056;51.112;0.984;2022-10-15T13:36:56;0;0;
42410;PMS5003;28056;51.112;0.984;2022-10-15T13:39:27;1;1;
42410;PMS5003;28056;51.112;0.984;2022-10-15T13:42:06;2;0;
42410;PMS5003;28056;51.112;0.984;2022-10-15T13:44:35;0;0;
42410;PMS5003;28056;51.112;0.984;2022-10-15T13:47:15;1;1;
42410;PMS5003;28056;51.112;0.984;2022-10-15T13:49:50;1;0;
42410;PMS5003;28056;51.112;0.984;2022-10-15T13:52:17;0;0;
42410;PMS5003;28056;51.112;0.984;2022-10-15T13:54:45;1;0;
42410;PMS5003;28056;51.112;0.984;2022-10-15T13:57:13;1;0;
42410;PMS5003;28056;51.112;0.984;2022-10-15T13:59:42;0;0;
42410;PMS5003;28056;51.112;0.984;2022-10-15T14:02:12;1;0;
42410;PMS5003;28056;51.112;0.984;2022-10-15T14:04:40;0;0;
42410;PMS5003;28056;51.112;0.984;2022-10-15T14:07:20;0;0;
42410;PMS5003;28056;51.112;0.984;2022-10-15T14:09:49;0;0;
42410;PMS5003;28056;51.112;0.984;2022-10-15T14:12:17;0;0;
42410;PMS5003;28056;51.112;0.984;2022-10-15T14:14:45;0;0;
42410;PMS5003;28056;51.112;0.984;2022-10-15T14:17:20;0;0;
42410;PMS5003;28056;51.112;0.984;2022-10-15T14:19:50;0;0;
42410;PMS5003;28056;51.112;0.984;2022-10-15T14:22:22;1;1;
42410;PMS5003;28056;51.112;0.984;2022-10-15T14:24:53;0;0;
42410;PMS5003;28056;51.112;0.984;2022-10-15T14:27:23;0;0;
42410;PMS5003;28056;51.112;0.984;2022-10-15T14:29:52;2;0;
42410;PMS5003;28056;51.112;0.984;2022-10-15T14:32:23;0;0;
42410;PMS5003;28056;51.112;0.984;2022-10-15T14:34:52;0;0;
42410;PMS5003;28056;51.112;0.984;2022-10-15T14:37:37;0;0;
42410;PMS5003;28056;51.112;0.984;2022-10-15T14:40:12;3;3;
42410;PMS5003;28056;51.112;0.984;2022-10-15T14:42:42;1;1;
42410;PMS5003;28056;51.112;0.984;2022-10-15T14:45:12;2;0;
42410;PMS5003;28056;51.112;0.984;2022-10-15T14:47:46;0;0;
42410;PMS5003;28056;51.112;0.984;2022-10-15T14:50:16;0;0;
42410;PMS5003;28056;51.112;0.984;2022-10-15T14:52:45;2;0;
42410;PMS5003;28056;51.112;0.984;2022-10-15T14:55:18;1;1;
42410;PMS5003;28056;51.112;0.984;2022-10-15T14:57:55;0;0;
42410;PMS5003;28056;51.112;0.984;2022-10-15T15:00:24;0;0;
42410;PMS5003;28056;51.112;0.984;2022-10-15T15:02:53;0;0;
42410;PMS5003;28056;51.112;0.984;2022-10-15T15:05:22;4;3;
42410;PMS5003;28056;51.112;0.984;2022-10-15T15:07:50;0;0;
42410;PMS5003;28056;51.112;0.984;2022-10-15T15:10:17;1;0;
42410;PMS5003;28056;51.112;0.984;2022-10-15T15:12:48;1;1;
42410;PMS5003;28056;51.112;0.984;2022-10-15T15:15:18;1;1;
42410;PMS5003;28056;51.112;0.984;2022-10-15T15:17:47;2;0;
42410;PMS5003;28056;51.112;0.984;2022-10-15T15:20:16;2;1;
42410;PMS5003;28056;51.112;0.984;2022-10-15T15:22:46;2;1;
42410;PMS5003;28056;51.112;0.984;2022-10-15T15:25:16;2;1;
42410;PMS5003;28056;51.112;0.984;2022-10-15T15:27:45;2;2;
42410;PMS5003;28056;51.112;0.984;2022-10-15T15:30:14;2;1;
42410;PMS5003;28056;51.112;0.984;2022-10-15T15:32:43;0;0;
42410;PMS5003;28056;51.112;0.984;2022-10-15T15:35:15;1;1;
42410;PMS5003;28056;51.112;0.984;2022-10-15T15:37:49;1;1;
42410;PMS5003;28056;51.112;0.984;2022-10-15T15:40:16;2;2;
42410;PMS5003;28056;51.112;0.984;2022-10-15T15:42:45;1;1;
42410;PMS5003;28056;51.112;0.984;2022-10-15T15:45:15;1;1;
42410;PMS5003;28056;51.112;0.984;2022-10-15T15:47:44;1;1;
42410;PMS5003;28056;51.112;0.984;2022-10-15T15:50:12;0;0;
42410;PMS5003;28056;51.112;0.984;2022-10-15T15:52:39;2;2;
42410;PMS5003;28056;51.112;0.984;2022-10-15T15:55:07;1;0;
42410;PMS5003;28056;51.112;0.984;2022-10-15T15:57:36;2;2;
42410;PMS5003;28056;51.112;0.984;2022-10-15T16:00:05;2;0;
42410;PMS5003;28056;51.112;0.984;2022-10-15T16:02:34;3;1;
42410;PMS5003;28056;51.112;0.984;2022-10-15T16:05:03;0;0;
42410;PMS5003;28056;51.112;0.984;2022-10-15T16:07:30;6;2;
42410;PMS5003;28056;51.112;0.984;2022-10-15T16:09:58;1;1;
42410;PMS5003;28056;51.112;0.984;2022-10-15T16:12:25;3;2;
42410;PMS5003;28056;51.112;0.984;2022-10-15T16:14:53;1;1;
42410;PMS5003;28056;51.112;0.984;2022-10-15T16:17:21;2;1;
42410;PMS5003;28056;51.112;0.984;2022-10-15T16:19:48;3;1;
42410;PMS5003;28056;51.112;0.984;2022-10-15T16:22:16;3;2;
42410;PMS5003;28056;51.112;0.984;2022-10-15T16:24:44;3;2;
42410;PMS5003;28056;51.112;0.984;2022-10-15T16:27:11;5;2;
42410;PMS5003;28056;51.112;0.984;2022-10-15T16:29:39;2;2;
42410;PMS5003;28056;51.112;0.984;2022-10-15T16:32:07;0;0;
42410;PMS5003;28056;51.112;0.984;2022-10-15T16:34:34;1;1;
42410;PMS5003;28056;51.112;0.984;2022-10-15T16:37:02;5;1;
42410;PMS5003;28056;51.112;0.984;2022-10-15T16:39:29;3;2;
42410;PMS5003;28056;51.112;0.984;2022-10-15T16:41:57;5;1;
42410;PMS5003;28056;51.112;0.984;2022-10-15T16:44:25;0;0;
42410;PMS5003;28056;51.112;0.984;2022-10-15T16:46:52;2;1;
42410;PMS5003;28056;51.112;0.984;2022-10-15T16:49:20;3;2;
42410;PMS5003;28056;51.112;0.984;2022-10-15T16:51:48;4;1;
42410;PMS5003;28056;51.112;0.984;2022-10-15T16:54:15;6;2;
42410;PMS5003;28056;51.112;0.984;2022-10-15T16:56:43;2;2;
42410;PMS5003;28056;51.112;0.984;2022-10-15T16:59:11;2;1;
42410;PMS5003;28056;51.112;0.984;2022-10-15T17:01:38;2;1;
42410;PMS5003;28056;51.112;0.984;2022-10-15T17:04:06;6;3;
42410;PMS5003;28056;51.112;0.984;2022-10-15T17:06:34;4;2;
42410;PMS5003;28056;51.112;0.984;2022-10-15T17:09:01;2;1;
42410;PMS5003;28056;51.112;0.984;2022-10-15T17:11:30;2;2;